createdAt,value
2022-12-03T16:10:44.229Z,3.24
2022-12-03T16:11:44.147Z,3.18
2022-12-03T16:12:44.088Z,3.15
2022-12-03T16:13:44.030Z,3.18
2022-12-03T16:14:43.977Z,3.21
2022-12-03T16:15:43.958Z,3.24
2022-12-03T16:16:43.871Z,3.21
2022-12-03T16:17:43.817Z,3.22
2022-12-03T16:18:43.765Z,3.21
2022-12-03T16:19:43.715Z,3.27
2022-12-03T16:20:43.662Z,3.19
2022-12-03T16:21:43.610Z,3.19
2022-12-03T16:22:43.559Z,3.24
2022-12-03T16:23:43.520Z,3.18
2022-12-03T16:24:43.522Z,3.24
2022-12-03T16:25:43.409Z,3.24
2022-12-03T16:26:43.522Z,3.19
2022-12-03T16:27:43.313Z,3.19
2022-12-03T16:28:43.257Z,3.24
2022-12-03T16:29:43.279Z,3.27
2022-12-03T16:30:43.213Z,3.22
2022-12-03T16:31:43.237Z,3.24
2022-12-03T16:32:43.062Z,3.24
2022-12-03T16:33:43.013Z,3.19
2022-12-03T16:34:42.958Z,3.21
2022-12-03T16:35:42.916Z,3.22
2022-12-03T16:36:43.181Z,3.19
2022-12-03T16:37:42.813Z,3.19
2022-12-03T16:38:42.759Z,3.19
2022-12-03T16:39:42.711Z,3.24
2022-12-03T16:40:42.661Z,3.21
2022-12-03T16:41:42.628Z,3.21
2022-12-03T16:42:42.587Z,3.22
2022-12-03T16:43:42.548Z,3.27
2022-12-03T16:44:42.494Z,3.18
2022-12-03T16:45:42.754Z,3.19
2022-12-03T16:46:42.464Z,3.26
2022-12-03T16:47:42.349Z,3.21
2022-12-03T16:49:42.235Z,3.22
2022-12-03T16:50:42.200Z,3.27
2022-12-03T16:51:42.138Z,3.27
2022-12-03T16:52:42.076Z,3.22
2022-12-03T16:53:42.028Z,3.26
2022-12-03T16:54:42.004Z,3.26
2022-12-03T16:55:41.930Z,3.22
2022-12-03T16:56:41.903Z,3.26
2022-12-03T16:57:41.831Z,3.21
2022-12-03T16:58:41.832Z,3.26
2022-12-03T16:59:41.733Z,3.22
2022-12-03T17:00:41.688Z,3.26
2022-12-03T17:01:41.741Z,3.22
2022-12-03T17:02:41.699Z,3.21
2022-12-03T17:03:41.556Z,3.21
2022-12-03T17:04:41.510Z,3.24
2022-12-03T17:05:41.442Z,3.26
2022-12-03T17:06:41.419Z,3.26
2022-12-03T17:07:41.417Z,3.24
2022-12-03T17:08:47.370Z,3.21
2022-12-03T17:09:41.269Z,3.16
2022-12-03T17:10:41.289Z,3.26
2022-12-03T17:11:41.177Z,3.21
2022-12-03T17:13:08.384Z,3.22
2022-12-03T17:13:41.051Z,3.24
2022-12-03T17:14:41.025Z,3.19
2022-12-03T17:15:41.054Z,3.18
2022-12-03T17:16:41.230Z,3.16
2022-12-03T17:17:40.879Z,3.09
2022-12-03T17:18:40.832Z,3.12
2022-12-03T17:19:40.776Z,3.06
2022-12-03T17:20:40.714Z,3.12
2022-12-03T17:21:40.689Z,3.13
2022-12-03T17:22:40.647Z,3.08
2022-12-03T17:23:40.566Z,3.12
2022-12-03T17:24:40.515Z,3.11
2022-12-03T17:25:40.484Z,3.11
2022-12-03T17:26:40.418Z,3.13
2022-12-03T17:27:45.084Z,3.05
2022-12-03T17:28:40.326Z,3.12
2022-12-03T17:29:40.276Z,3.12
2022-12-03T17:30:40.259Z,3.09
2022-12-03T17:31:42.577Z,3.09
2022-12-03T17:32:40.130Z,3.06
2022-12-03T17:33:40.080Z,3.13
2022-12-03T17:34:40.046Z,3.06
2022-12-03T17:35:39.984Z,3.12
2022-12-03T17:36:39.934Z,3.09
2022-12-03T17:37:39.883Z,3.16
2022-12-03T17:38:39.838Z,3.13
2022-12-03T17:39:39.789Z,3.11
2022-12-03T17:40:39.737Z,3.13
2022-12-03T17:41:39.687Z,3.11
2022-12-03T17:42:39.649Z,3.08
2022-12-03T17:43:39.601Z,3.18
2022-12-03T17:44:39.551Z,3.13
2022-12-03T17:45:39.494Z,3.12
2022-12-03T17:46:39.631Z,3.18
2022-12-03T17:47:39.393Z,3.08
2022-12-03T17:48:39.348Z,3.09
2022-12-03T17:49:39.295Z,3.06
2022-12-03T17:50:39.251Z,3.01
2022-12-03T17:51:39.201Z,3.11
2022-12-03T17:52:39.153Z,3.05
2022-12-03T17:53:39.102Z,3.08
2022-12-03T17:55:08.551Z,3.08
2022-12-03T17:55:44.721Z,3.00
2022-12-03T17:56:38.971Z,3.01
2022-12-03T17:57:38.906Z,3.08
2022-12-03T17:58:38.861Z,3.13
2022-12-03T17:59:38.806Z,3.00
2022-12-03T18:00:38.760Z,3.12
2022-12-03T18:01:38.796Z,3.11
2022-12-03T18:02:38.681Z,3.01
2022-12-03T18:03:38.741Z,3.01
2022-12-03T18:04:38.571Z,3.09
2022-12-03T18:05:38.521Z,3.03
2022-12-03T18:06:38.798Z,3.06
2022-12-03T18:07:38.481Z,3.09
2022-12-03T18:08:38.375Z,3.12
2022-12-03T18:09:38.319Z,3.11
2022-12-03T18:10:38.271Z,3.08
2022-12-03T18:11:38.226Z,3.05
2022-12-03T18:12:38.173Z,3.13
2022-12-03T18:13:38.131Z,3.05
2022-12-03T18:14:38.078Z,3.09
2022-12-03T18:15:38.030Z,3.16
2022-12-03T18:16:38.044Z,3.08
2022-12-03T18:17:37.934Z,3.05
2022-12-03T18:18:37.909Z,3.13
2022-12-03T18:19:37.838Z,3.11
2022-12-03T18:20:37.794Z,3.08
2022-12-03T18:22:37.690Z,3.05
2022-12-03T18:23:37.637Z,3.00
2022-12-03T18:24:37.588Z,3.00
2022-12-03T18:25:37.541Z,3.05
2022-12-03T18:26:37.497Z,3.09
2022-12-03T18:27:37.444Z,3.06
2022-12-03T18:28:37.395Z,3.01
2022-12-03T18:29:37.346Z,3.03
2022-12-03T18:30:37.300Z,3.08
2022-12-03T18:31:37.341Z,3.08
2022-12-03T18:32:37.197Z,3.03
2022-12-03T18:33:37.208Z,3.03
2022-12-03T18:34:37.135Z,3.08
2022-12-03T18:35:37.051Z,3.09
2022-12-03T18:36:37.009Z,3.06
2022-12-03T18:37:36.954Z,3.12
2022-12-03T18:38:36.904Z,3.13
2022-12-03T18:39:36.858Z,3.12
2022-12-03T18:40:36.807Z,3.11
2022-12-03T18:41:36.766Z,3.09
2022-12-03T18:42:36.725Z,3.09
2022-12-03T18:43:36.664Z,3.11
2022-12-03T18:44:36.613Z,3.15
2022-12-03T18:45:36.570Z,3.06
2022-12-03T18:46:52.901Z,3.06
2022-12-03T18:47:36.531Z,3.12
2022-12-03T18:48:36.426Z,3.11
2022-12-03T18:49:36.374Z,3.06
2022-12-03T18:50:36.343Z,3.03
2022-12-03T18:51:36.272Z,3.11
2022-12-03T18:52:36.224Z,3.09
2022-12-03T18:53:36.190Z,3.01
2022-12-03T18:54:36.126Z,3.05
2022-12-03T18:55:36.079Z,3.09
2022-12-03T18:56:36.026Z,3.00
2022-12-03T18:57:35.982Z,3.00
2022-12-03T18:58:35.928Z,3.03
2022-12-03T18:59:35.894Z,3.11
2022-12-03T19:00:35.925Z,3.01
2022-12-03T19:01:36.009Z,3.01
2022-12-03T19:03:01.812Z,3.05
2022-12-03T19:03:35.787Z,2.98
2022-12-03T19:04:35.639Z,3.11
2022-12-03T19:05:35.596Z,3.00
2022-12-03T19:06:35.559Z,3.00
2022-12-03T19:07:35.581Z,3.03
2022-12-03T19:08:35.442Z,3.05
2022-12-03T19:09:35.394Z,3.05
2022-12-03T19:10:35.352Z,2.95
2022-12-03T19:11:35.294Z,2.97
2022-12-03T19:12:35.250Z,2.98
2022-12-03T19:13:35.200Z,3.00
2022-12-03T19:15:35.107Z,2.95
2022-12-03T19:16:35.142Z,3.00
2022-12-03T19:17:35.003Z,2.98
2022-12-03T19:18:34.952Z,2.98
2022-12-03T19:19:34.904Z,3.00
2022-12-03T19:20:34.883Z,2.88
2022-12-03T19:21:34.805Z,2.88
2022-12-03T19:22:34.783Z,2.95
2022-12-03T19:23:34.704Z,2.97
2022-12-03T19:24:34.658Z,2.97
2022-12-03T19:25:34.610Z,2.87
2022-12-03T19:26:34.774Z,2.88
2022-12-03T19:27:34.508Z,2.90
2022-12-03T19:28:34.460Z,2.83
2022-12-03T19:29:34.417Z,2.97
2022-12-03T19:30:34.363Z,2.83
2022-12-03T19:31:34.409Z,2.90
2022-12-03T19:32:34.267Z,2.83
2022-12-03T19:33:34.214Z,2.94
2022-12-03T19:34:34.183Z,2.97
2022-12-03T19:35:34.130Z,2.88
2022-12-03T19:36:34.087Z,2.80
2022-12-03T19:37:34.098Z,2.93
2022-12-03T19:38:34.023Z,2.88
2022-12-03T19:39:33.922Z,2.83
2022-12-03T19:40:33.879Z,2.82
2022-12-03T19:41:33.824Z,2.87
2022-12-03T19:42:33.782Z,2.88
2022-12-03T19:43:33.728Z,2.87
2022-12-03T19:44:34.031Z,2.85
2022-12-03T19:45:33.732Z,2.85
2022-12-03T19:46:33.587Z,2.90
2022-12-03T19:47:33.526Z,2.94
2022-12-03T19:48:33.481Z,2.91
2022-12-03T19:49:33.427Z,2.93
2022-12-03T19:50:33.389Z,2.91
2022-12-03T19:51:35.067Z,2.88
2022-12-03T19:52:33.339Z,2.93
2022-12-03T19:53:33.241Z,2.83
2022-12-03T19:54:33.206Z,2.87
2022-12-03T19:55:33.152Z,2.85
2022-12-03T19:56:33.088Z,2.85
2022-12-03T19:57:33.037Z,2.91
2022-12-03T19:58:32.993Z,2.87
2022-12-03T19:59:32.938Z,2.87
2022-12-03T20:00:32.892Z,2.90
2022-12-03T20:01:32.920Z,2.90
2022-12-03T20:02:32.818Z,2.87
2022-12-03T20:03:32.744Z,2.82
2022-12-03T20:04:32.695Z,2.83
2022-12-03T20:05:33.445Z,2.87
2022-12-03T20:06:32.617Z,2.83
2022-12-03T20:07:32.620Z,2.87
2022-12-03T20:08:32.499Z,2.79
2022-12-03T20:09:32.446Z,2.90
2022-12-03T20:10:32.449Z,2.80
2022-12-03T20:11:32.345Z,2.85
2022-12-03T20:12:32.307Z,2.79
2022-12-03T20:13:36.394Z,2.88
2022-12-03T20:14:32.201Z,2.76
2022-12-03T20:15:32.152Z,2.77
2022-12-03T20:16:32.220Z,2.83
2022-12-03T20:17:32.065Z,2.76
2022-12-03T20:18:32.004Z,2.77
2022-12-03T20:19:31.953Z,2.87
2022-12-03T20:20:31.906Z,2.93
2022-12-03T20:21:31.853Z,2.83
2022-12-03T20:22:31.805Z,2.80
2022-12-03T20:23:31.755Z,2.85
2022-12-03T20:24:31.711Z,2.87
2022-12-03T20:25:31.664Z,2.82
2022-12-03T20:26:31.628Z,2.87
2022-12-03T20:27:31.556Z,2.83
2022-12-03T20:28:31.509Z,2.88
2022-12-03T20:29:31.461Z,2.87
2022-12-03T20:30:31.412Z,2.85
2022-12-03T20:31:31.461Z,2.88
2022-12-03T20:32:31.312Z,2.79
2022-12-03T20:33:31.270Z,2.79
2022-12-03T20:34:31.216Z,2.83
2022-12-03T20:35:31.167Z,2.87
2022-12-03T20:36:31.122Z,2.90
2022-12-03T20:37:31.068Z,2.85
2022-12-03T20:38:31.017Z,2.88
2022-12-03T20:39:30.969Z,2.83
2022-12-03T20:40:30.919Z,2.90
2022-12-03T20:41:30.874Z,2.88
2022-12-03T20:42:30.840Z,2.83
2022-12-03T20:43:30.772Z,2.82
2022-12-03T20:44:30.723Z,2.77
2022-12-03T20:45:30.769Z,2.88
2022-12-03T20:46:30.660Z,2.83
2022-12-03T20:47:30.576Z,2.79
2022-12-03T20:48:30.528Z,2.82
2022-12-03T20:49:30.681Z,2.88
2022-12-03T20:50:30.427Z,2.77
2022-12-03T20:51:30.378Z,2.79
2022-12-03T20:52:30.332Z,2.77
2022-12-03T20:53:30.283Z,2.73
2022-12-03T20:54:30.230Z,2.73
2022-12-03T20:55:30.183Z,2.83
2022-12-03T20:56:30.129Z,2.80
2022-12-03T20:57:30.082Z,2.87
2022-12-03T20:58:30.051Z,2.77
2022-12-03T20:59:29.989Z,2.77
2022-12-03T21:00:29.940Z,2.82
2022-12-03T21:01:29.949Z,2.82
2022-12-03T21:02:29.923Z,2.85
2022-12-03T21:03:29.786Z,2.76
2022-12-03T21:04:29.736Z,2.80
2022-12-03T21:05:29.689Z,2.82
2022-12-03T21:06:29.639Z,2.73
2022-12-03T21:07:29.645Z,2.76
2022-12-03T21:08:41.182Z,2.77
2022-12-03T21:09:29.493Z,2.73
2022-12-03T21:10:29.442Z,2.77
2022-12-03T21:11:29.395Z,2.73
2022-12-03T21:12:29.342Z,2.79
2022-12-03T21:13:32.267Z,2.79
2022-12-03T21:14:29.263Z,2.79
2022-12-03T21:15:29.198Z,2.82
2022-12-03T21:16:59.026Z,2.76
2022-12-03T21:17:29.237Z,2.80
2022-12-03T21:18:29.054Z,2.83
2022-12-03T21:19:28.999Z,2.73
2022-12-03T21:20:28.947Z,2.82
2022-12-03T21:21:28.900Z,2.80
2022-12-03T21:22:28.854Z,2.82
2022-12-03T21:23:28.802Z,2.87
2022-12-03T21:24:28.750Z,2.76
2022-12-03T21:25:28.705Z,2.76
2022-12-03T21:26:28.651Z,2.80
2022-12-03T21:27:28.606Z,2.79
2022-12-03T21:28:28.551Z,2.76
2022-12-03T21:29:28.507Z,2.76
2022-12-03T21:30:28.493Z,2.76
2022-12-03T21:31:28.476Z,2.85
2022-12-03T21:32:28.356Z,2.76
2022-12-03T21:33:28.317Z,2.75
2022-12-03T21:34:35.552Z,2.77
2022-12-03T21:35:28.222Z,2.76
2022-12-03T21:36:28.161Z,2.77
2022-12-03T21:37:28.121Z,2.76
2022-12-03T21:38:28.116Z,2.76
2022-12-03T21:39:28.013Z,2.76
2022-12-03T21:40:27.965Z,2.77
2022-12-03T21:41:27.915Z,2.79
2022-12-03T21:42:36.895Z,2.82
2022-12-03T21:43:27.827Z,2.76
2022-12-03T21:44:27.774Z,2.79
2022-12-03T21:45:27.719Z,2.75
2022-12-03T21:47:12.343Z,2.85
2022-12-03T21:47:32.151Z,2.83
2022-12-03T21:48:27.576Z,2.80
2022-12-03T21:49:28.136Z,2.80
2022-12-03T21:50:27.477Z,2.83
2022-12-03T21:51:27.425Z,2.82
2022-12-03T21:52:27.372Z,2.82
2022-12-03T21:53:27.339Z,2.73
2022-12-03T21:54:27.270Z,2.80
2022-12-03T21:55:27.226Z,2.76
2022-12-03T21:56:27.171Z,2.80
2022-12-03T21:57:27.125Z,2.79
2022-12-03T21:58:27.082Z,2.79
2022-12-03T21:59:27.028Z,2.77
2022-12-03T22:00:26.977Z,2.75
2022-12-03T22:01:27.010Z,2.77
2022-12-03T22:02:26.988Z,2.73
2022-12-03T22:03:26.827Z,2.79
2022-12-03T22:04:26.789Z,2.79
2022-12-03T22:05:26.732Z,2.76
2022-12-03T22:06:26.681Z,2.73
2022-12-03T22:07:26.693Z,2.72
2022-12-03T22:08:26.584Z,2.76
2022-12-03T22:09:27.082Z,2.76
2022-12-03T22:10:26.482Z,2.83
2022-12-03T22:11:26.436Z,2.85
2022-12-03T22:12:26.383Z,2.73
2022-12-03T22:13:26.337Z,2.76
2022-12-03T22:14:26.282Z,2.77
2022-12-03T22:15:26.234Z,2.79
2022-12-03T22:16:26.273Z,2.72
2022-12-03T22:17:26.142Z,2.76
2022-12-03T22:18:26.125Z,2.79
2022-12-03T22:19:26.061Z,2.68
2022-12-03T22:20:25.995Z,2.72
2022-12-03T22:21:25.939Z,2.75
2022-12-03T22:22:25.890Z,2.79
2022-12-03T22:23:25.842Z,2.76
2022-12-03T22:24:25.793Z,2.75
2022-12-03T22:25:25.749Z,2.73
2022-12-03T22:26:25.692Z,2.83
2022-12-03T22:27:25.644Z,2.77
2022-12-03T22:28:25.603Z,2.75
2022-12-03T22:29:25.547Z,2.69
2022-12-03T22:30:25.496Z,2.68
2022-12-03T22:31:25.468Z,2.73
2022-12-03T22:32:25.396Z,2.69
2022-12-03T22:33:25.348Z,2.72
2022-12-03T22:34:25.315Z,2.72
2022-12-03T22:35:25.268Z,2.79
2022-12-03T22:36:25.197Z,2.65
2022-12-03T22:37:25.156Z,2.65
2022-12-03T22:38:25.103Z,2.72
2022-12-03T22:39:25.051Z,2.77
2022-12-03T22:40:24.999Z,2.70
2022-12-03T22:41:24.955Z,2.69
2022-12-03T22:42:24.903Z,2.65
2022-12-03T22:43:24.853Z,2.70
2022-12-03T22:44:24.802Z,2.68
2022-12-03T22:45:24.756Z,2.69
2022-12-03T22:46:24.802Z,2.69
2022-12-03T22:47:24.658Z,2.69
2022-12-03T22:48:24.613Z,2.69
2022-12-03T22:49:24.559Z,2.70
2022-12-03T22:50:24.528Z,2.68
2022-12-03T22:51:24.473Z,2.72
2022-12-03T22:52:24.407Z,2.70
2022-12-03T22:53:24.364Z,2.72
2022-12-03T22:54:24.493Z,2.65
2022-12-03T22:55:24.265Z,2.69
2022-12-03T22:56:24.213Z,2.68
2022-12-03T22:57:24.161Z,2.54
2022-12-03T22:58:24.112Z,2.57
2022-12-03T22:59:24.062Z,2.58
2022-12-03T23:00:24.012Z,2.65
2022-12-03T23:01:23.988Z,2.68
2022-12-03T23:02:23.948Z,2.64
2022-12-03T23:03:23.905Z,2.64
2022-12-03T23:04:23.813Z,2.65
2022-12-03T23:05:23.770Z,2.62
2022-12-03T23:06:23.735Z,2.64
2022-12-03T23:07:23.669Z,2.68
2022-12-03T23:08:23.618Z,2.64
2022-12-03T23:09:23.569Z,2.64
2022-12-03T23:10:23.520Z,2.73
2022-12-03T23:11:23.468Z,2.64
2022-12-03T23:12:23.424Z,2.68
2022-12-03T23:13:23.371Z,2.68
2022-12-03T23:14:23.321Z,2.65
2022-12-03T23:15:23.272Z,2.68
2022-12-03T23:16:23.294Z,2.69
2022-12-03T23:17:23.172Z,2.62
2022-12-03T23:18:23.123Z,2.65
2022-12-03T23:19:23.073Z,2.57
2022-12-03T23:20:23.022Z,2.55
2022-12-03T23:21:28.580Z,2.64
2022-12-03T23:22:22.950Z,2.68
2022-12-03T23:23:22.875Z,2.62
2022-12-03T23:24:22.822Z,2.54
2022-12-03T23:25:22.777Z,2.59
2022-12-03T23:26:22.726Z,2.55
2022-12-03T23:27:22.680Z,2.57
2022-12-03T23:28:22.627Z,2.52
2022-12-03T23:29:22.578Z,2.55
2022-12-03T23:30:22.538Z,2.54
2022-12-03T23:31:22.530Z,2.54
2022-12-03T23:32:22.427Z,2.55
2022-12-03T23:33:22.385Z,2.55
2022-12-03T23:34:22.494Z,2.54
2022-12-03T23:35:22.280Z,2.62
2022-12-03T23:36:22.230Z,2.55
2022-12-03T23:37:22.184Z,2.55
2022-12-03T23:38:22.152Z,2.55
2022-12-03T23:39:22.081Z,2.52
2022-12-03T23:40:22.033Z,2.55
2022-12-03T23:41:21.983Z,2.54
2022-12-03T23:42:21.935Z,2.64
2022-12-03T23:43:21.886Z,2.57
2022-12-03T23:44:21.830Z,2.70
2022-12-03T23:45:21.786Z,2.61
2022-12-03T23:46:21.804Z,2.55
2022-12-03T23:47:21.685Z,2.55
2022-12-03T23:48:21.634Z,2.54
2022-12-03T23:49:21.588Z,2.57
2022-12-03T23:50:21.535Z,2.54
2022-12-03T23:51:21.486Z,2.69
2022-12-03T23:52:21.435Z,2.55
2022-12-03T23:53:21.389Z,2.68
2022-12-03T23:54:21.357Z,2.65
2022-12-03T23:55:21.289Z,2.68
2022-12-03T23:56:21.238Z,2.70
2022-12-03T23:57:21.189Z,2.70
2022-12-03T23:58:21.144Z,2.72
2022-12-03T23:59:21.089Z,2.59
